sensor_id;sensor_type;location;lat;lon;timestamp;P1;durP1;ratioP1;P2;durP2;ratioP2
48042;SDS011;33988;47.992;8.820;2023-01-05T00:01:34;1.58;;;1.08;;
48042;SDS011;33988;47.992;8.820;2023-01-05T00:04:02;1.10;;;0.63;;
48042;SDS011;33988;47.992;8.820;2023-01-05T00:06:32;2.42;;;1.20;;
48042;SDS011;33988;47.992;8.820;2023-01-05T00:09:06;1.40;;;0.65;;
48042;SDS011;33988;47.992;8.820;2023-01-05T00:11:40;0.68;;;0.65;;
48042;SDS011;33988;47.992;8.820;2023-01-05T00:14:30;0.40;;;0.40;;
48042;SDS011;33988;47.992;8.820;2023-01-05T00:17:18;0.30;;;0.30;;
48042;SDS011;33988;47.992;8.820;2023-01-05T00:20:15;0.20;;;0.20;;
48042;SDS011;33988;47.992;8.820;2023-01-05T00:23:04;0.32;;;0.28;;
48042;SDS011;33988;47.992;8.820;2023-01-05T00:25:32;0.40;;;0.40;;
48042;SDS011;33988;47.992;8.820;2023-01-05T00:28:03;0.75;;;0.40;;
48042;SDS011;33988;47.992;8.820;2023-01-05T00:30:33;0.95;;;0.70;;
48042;SDS011;33988;47.992;8.820;2023-01-05T00:33:10;0.32;;;0.30;;
48042;SDS011;33988;47.992;8.820;2023-01-05T00:35:44;0.40;;;0.40;;
48042;SDS011;33988;47.992;8.820;2023-01-05T00:38:11;0.52;;;0.20;;
48042;SDS011;33988;47.992;8.820;2023-01-05T00:40:38;0.50;;;0.50;;
48042;SDS011;33988;47.992;8.820;2023-01-05T00:43:05;0.30;;;0.30;;
48042;SDS011;33988;47.992;8.820;2023-01-05T00:45:34;0.20;;;0.20;;
48042;SDS011;33988;47.992;8.820;2023-01-05T00:48:01;0.38;;;0.38;;
48042;SDS011;33988;47.992;8.820;2023-01-05T00:50:33;0.43;;;0.38;;
48042;SDS011;33988;47.992;8.820;2023-01-05T00:53:02;0.40;;;0.32;;
48042;SDS011;33988;47.992;8.820;2023-01-05T00:55:29;0.40;;;0.40;;
48042;SDS011;33988;47.992;8.820;2023-01-05T00:57:59;0.30;;;0.30;;
48042;SDS011;33988;47.992;8.820;2023-01-05T01:00:26;0.20;;;0.20;;
48042;SDS011;33988;47.992;8.820;2023-01-05T01:02:56;0.30;;;0.30;;
48042;SDS011;33988;47.992;8.820;2023-01-05T01:05:25;0.20;;;0.20;;
48042;SDS011;33988;47.992;8.820;2023-01-05T01:07:52;0.45;;;0.40;;
48042;SDS011;33988;47.992;8.820;2023-01-05T01:10:19;0.32;;;0.30;;
48042;SDS011;33988;47.992;8.820;2023-01-05T01:12:51;0.30;;;0.30;;
48042;SDS011;33988;47.992;8.820;2023-01-05T01:15:23;0.20;;;0.20;;
48042;SDS011;33988;47.992;8.820;2023-01-05T01:17:50;0.20;;;0.20;;
48042;SDS011;33988;47.992;8.820;2023-01-05T01:20:22;0.20;;;0.20;;
48042;SDS011;33988;47.992;8.820;2023-01-05T01:22:51;0.30;;;0.30;;
48042;SDS011;33988;47.992;8.820;2023-01-05T01:25:18;0.20;;;0.20;;
48042;SDS011;33988;47.992;8.820;2023-01-05T01:27:48;0.20;;;0.20;;
48042;SDS011;33988;47.992;8.820;2023-01-05T01:30:15;0.30;;;0.30;;
48042;SDS011;33988;47.992;8.820;2023-01-05T01:32:45;0.68;;;0.40;;
48042;SDS011;33988;47.992;8.820;2023-01-05T01:35:12;0.30;;;0.30;;
48042;SDS011;33988;47.992;8.820;2023-01-05T01:37:42;0.40;;;0.40;;
48042;SDS011;33988;47.992;8.820;2023-01-05T01:40:09;0.35;;;0.35;;
48042;SDS011;33988;47.992;8.820;2023-01-05T01:42:39;0.30;;;0.30;;
48042;SDS011;33988;47.992;8.820;2023-01-05T01:45:19;0.22;;;0.22;;
48042;SDS011;33988;47.992;8.820;2023-01-05T01:47:59;0.20;;;0.20;;
48042;SDS011;33988;47.992;8.820;2023-01-05T01:50:30;0.20;;;0.20;;
48042;SDS011;33988;47.992;8.820;2023-01-05T01:55:31;0.30;;;0.30;;
48042;SDS011;33988;47.992;8.820;2023-01-05T01:58:02;0.28;;;0.28;;
48042;SDS011;33988;47.992;8.820;2023-01-05T02:00:37;0.30;;;0.30;;
48042;SDS011;33988;47.992;8.820;2023-01-05T02:03:08;0.20;;;0.20;;
48042;SDS011;33988;47.992;8.820;2023-01-05T02:05:38;0.20;;;0.20;;
48042;SDS011;33988;47.992;8.820;2023-01-05T02:08:10;0.32;;;0.32;;
48042;SDS011;33988;47.992;8.820;2023-01-05T02:10:54;0.20;;;0.20;;
48042;SDS011;33988;47.992;8.820;2023-01-05T02:19:29;0.30;;;0.30;;
48042;SDS011;33988;47.992;8.820;2023-01-05T02:26:20;0.30;;;0.30;;
48042;SDS011;33988;47.992;8.820;2023-01-05T02:31:54;0.28;;;0.28;;
48042;SDS011;33988;47.992;8.820;2023-01-05T02:34:43;0.30;;;0.30;;
48042;SDS011;33988;47.992;8.820;2023-01-05T02:40:41;0.10;;;0.10;;
48042;SDS011;33988;47.992;8.820;2023-01-05T02:43:14;0.25;;;0.20;;
48042;SDS011;33988;47.992;8.820;2023-01-05T02:45:46;0.10;;;0.10;;
48042;SDS011;33988;47.992;8.820;2023-01-05T02:48:14;0.25;;;0.25;;
48042;SDS011;33988;47.992;8.820;2023-01-05T02:50:57;0.20;;;0.20;;
48042;SDS011;33988;47.992;8.820;2023-01-05T02:53:53;0.20;;;0.20;;
48042;SDS011;33988;47.992;8.820;2023-01-05T02:56:32;0.30;;;0.30;;
48042;SDS011;33988;47.992;8.820;2023-01-05T02:59:12;0.20;;;0.20;;
48042;SDS011;33988;47.992;8.820;2023-01-05T03:01:49;0.30;;;0.30;;
48042;SDS011;33988;47.992;8.820;2023-01-05T03:04:44;0.20;;;0.20;;
48042;SDS011;33988;47.992;8.820;2023-01-05T03:07:17;0.10;;;0.10;;
48042;SDS011;33988;47.992;8.820;2023-01-05T03:09:49;0.17;;;0.17;;
48042;SDS011;33988;47.992;8.820;2023-01-05T03:15:24;0.10;;;0.10;;
48042;SDS011;33988;47.992;8.820;2023-01-05T03:18:06;0.10;;;0.10;;
48042;SDS011;33988;47.992;8.820;2023-01-05T03:20:43;0.10;;;0.10;;
48042;SDS011;33988;47.992;8.820;2023-01-05T03:23:15;0.10;;;0.10;;
48042;SDS011;33988;47.992;8.820;2023-01-05T03:26:02;0.20;;;0.20;;
48042;SDS011;33988;47.992;8.820;2023-01-05T03:28:57;0.15;;;0.15;;
48042;SDS011;33988;47.992;8.820;2023-01-05T03:31:50;0.20;;;0.20;;
48042;SDS011;33988;47.992;8.820;2023-01-05T03:37:52;0.20;;;0.20;;
48042;SDS011;33988;47.992;8.820;2023-01-05T03:40:33;0.30;;;0.20;;
48042;SDS011;33988;47.992;8.820;2023-01-05T03:43:03;0.20;;;0.20;;
48042;SDS011;33988;47.992;8.820;2023-01-05T03:45:33;0.20;;;0.10;;
48042;SDS011;33988;47.992;8.820;2023-01-05T03:48:18;1.35;;;0.10;;
48042;SDS011;33988;47.992;8.820;2023-01-05T03:50:46;0.10;;;0.10;;
48042;SDS011;33988;47.992;8.820;2023-01-05T03:53:13;0.20;;;0.20;;
48042;SDS011;33988;47.992;8.820;2023-01-05T03:55:40;0.10;;;0.10;;
48042;SDS011;33988;47.992;8.820;2023-01-05T03:58:07;0.20;;;0.20;;
48042;SDS011;33988;47.992;8.820;2023-01-05T04:00:36;0.10;;;0.10;;
48042;SDS011;33988;47.992;8.820;2023-01-05T04:03:03;0.20;;;0.20;;
48042;SDS011;33988;47.992;8.820;2023-01-05T04:05:31;0.20;;;0.20;;
48042;SDS011;33988;47.992;8.820;2023-01-05T04:07:58;0.20;;;0.20;;
48042;SDS011;33988;47.992;8.820;2023-01-05T04:10:28;0.20;;;0.20;;
48042;SDS011;33988;47.992;8.820;2023-01-05T04:12:55;0.10;;;0.10;;
48042;SDS011;33988;47.992;8.820;2023-01-05T04:15:22;2.75;;;0.60;;
48042;SDS011;33988;47.992;8.820;2023-01-05T04:17:49;0.65;;;0.25;;
48042;SDS011;33988;47.992;8.820;2023-01-05T04:20:16;0.20;;;0.20;;
48042;SDS011;33988;47.992;8.820;2023-01-05T04:22:43;0.20;;;0.20;;
48042;SDS011;33988;47.992;8.820;2023-01-05T04:25:10;0.20;;;0.20;;
48042;SDS011;33988;47.992;8.820;2023-01-05T04:27:40;0.20;;;0.20;;
48042;SDS011;33988;47.992;8.820;2023-01-05T04:30:07;0.10;;;0.10;;
48042;SDS011;33988;47.992;8.820;2023-01-05T04:32:35;0.28;;;0.28;;
48042;SDS011;33988;47.992;8.820;2023-01-05T04:35:02;0.20;;;0.20;;
48042;SDS011;33988;47.992;8.820;2023-01-05T04:37:36;0.30;;;0.20;;
48042;SDS011;33988;47.992;8.820;2023-01-05T04:40:06;0.38;;;0.20;;
48042;SDS011;33988;47.992;8.820;2023-01-05T04:42:34;0.20;;;0.20;;
48042;SDS011;33988;47.992;8.820;2023-01-05T04:45:00;0.30;;;0.20;;
48042;SDS011;33988;47.992;8.820;2023-01-05T04:47:27;0.20;;;0.20;;
48042;SDS011;33988;47.992;8.820;2023-01-05T04:49:54;0.20;;;0.20;;
48042;SDS011;33988;47.992;8.820;2023-01-05T04:52:21;0.20;;;0.20;;
48042;SDS011;33988;47.992;8.820;2023-01-05T04:54:50;0.30;;;0.30;;
48042;SDS011;33988;47.992;8.820;2023-01-05T04:57:17;0.30;;;0.25;;
48042;SDS011;33988;47.992;8.820;2023-01-05T04:59:46;0.52;;;0.30;;
48042;SDS011;33988;47.992;8.820;2023-01-05T05:02:13;0.30;;;0.30;;
48042;SDS011;33988;47.992;8.820;2023-01-05T05:04:40;0.52;;;0.30;;
48042;SDS011;33988;47.992;8.820;2023-01-05T05:07:07;0.20;;;0.20;;
48042;SDS011;33988;47.992;8.820;2023-01-05T05:09:34;0.38;;;0.28;;
48042;SDS011;33988;47.992;8.820;2023-01-05T05:12:01;0.20;;;0.20;;
48042;SDS011;33988;47.992;8.820;2023-01-05T05:14:30;0.13;;;0.13;;
48042;SDS011;33988;47.992;8.820;2023-01-05T05:16:57;0.10;;;0.10;;
48042;SDS011;33988;47.992;8.820;2023-01-05T05:19:24;0.20;;;0.20;;
48042;SDS011;33988;47.992;8.820;2023-01-05T05:21:51;0.20;;;0.20;;
48042;SDS011;33988;47.992;8.820;2023-01-05T05:24:20;0.20;;;0.20;;
48042;SDS011;33988;47.992;8.820;2023-01-05T05:26:50;0.20;;;0.20;;
48042;SDS011;33988;47.992;8.820;2023-01-05T05:29:19;0.10;;;0.10;;
48042;SDS011;33988;47.992;8.820;2023-01-05T05:31:46;0.13;;;0.13;;
48042;SDS011;33988;47.992;8.820;2023-01-05T05:34:13;0.20;;;0.20;;
48042;SDS011;33988;47.992;8.820;2023-01-05T05:36:40;0.55;;;0.40;;
48042;SDS011;33988;47.992;8.820;2023-01-05T05:39:13;0.93;;;0.60;;
48042;SDS011;33988;47.992;8.820;2023-01-05T05:41:43;0.57;;;0.50;;
48042;SDS011;33988;47.992;8.820;2023-01-05T05:44:12;0.30;;;0.30;;
48042;SDS011;33988;47.992;8.820;2023-01-05T05:46:39;0.32;;;0.22;;
48042;SDS011;33988;47.992;8.820;2023-01-05T05:49:06;0.20;;;0.20;;
48042;SDS011;33988;47.992;8.820;2023-01-05T05:51:33;0.22;;;0.20;;
48042;SDS011;33988;47.992;8.820;2023-01-05T05:54:03;0.30;;;0.30;;
48042;SDS011;33988;47.992;8.820;2023-01-05T05:56:32;0.20;;;0.20;;
48042;SDS011;33988;47.992;8.820;2023-01-05T05:58:59;0.30;;;0.30;;
48042;SDS011;33988;47.992;8.820;2023-01-05T06:01:27;0.70;;;0.50;;
48042;SDS011;33988;47.992;8.820;2023-01-05T06:03:54;1.20;;;0.57;;
48042;SDS011;33988;47.992;8.820;2023-01-05T06:06:21;0.70;;;0.40;;
48042;SDS011;33988;47.992;8.820;2023-01-05T06:08:48;0.47;;;0.40;;
48042;SDS011;33988;47.992;8.820;2023-01-05T06:11:17;0.95;;;0.60;;
48042;SDS011;33988;47.992;8.820;2023-01-05T06:13:51;0.80;;;0.70;;
48042;SDS011;33988;47.992;8.820;2023-01-05T06:16:18;1.50;;;0.88;;
48042;SDS011;33988;47.992;8.820;2023-01-05T06:18:45;1.90;;;0.60;;
48042;SDS011;33988;47.992;8.820;2023-01-05T06:21:15;1.20;;;0.75;;
48042;SDS011;33988;47.992;8.820;2023-01-05T06:23:42;0.50;;;0.50;;
48042;SDS011;33988;47.992;8.820;2023-01-05T06:26:09;0.50;;;0.50;;
48042;SDS011;33988;47.992;8.820;2023-01-05T06:28:36;0.50;;;0.38;;
48042;SDS011;33988;47.992;8.820;2023-01-05T06:31:02;0.20;;;0.20;;
48042;SDS011;33988;47.992;8.820;2023-01-05T06:33:30;0.30;;;0.30;;
48042;SDS011;33988;47.992;8.820;2023-01-05T06:35:59;0.63;;;0.30;;
48042;SDS011;33988;47.992;8.820;2023-01-05T06:38:26;0.20;;;0.20;;
48042;SDS011;33988;47.992;8.820;2023-01-05T06:40:55;0.30;;;0.20;;
48042;SDS011;33988;47.992;8.820;2023-01-05T06:43:23;0.20;;;0.20;;
48042;SDS011;33988;47.992;8.820;2023-01-05T06:45:52;0.20;;;0.20;;
48042;SDS011;33988;47.992;8.820;2023-01-05T06:48:19;0.45;;;0.28;;
48042;SDS011;33988;47.992;8.820;2023-01-05T06:50:46;0.10;;;0.10;;
48042;SDS011;33988;47.992;8.820;2023-01-05T06:53:15;0.20;;;0.20;;
48042;SDS011;33988;47.992;8.820;2023-01-05T06:55:43;0.40;;;0.28;;
48042;SDS011;33988;47.992;8.820;2023-01-05T06:58:12;0.22;;;0.20;;
48042;SDS011;33988;47.992;8.820;2023-01-05T07:00:39;0.73;;;0.47;;
48042;SDS011;33988;47.992;8.820;2023-01-05T07:03:06;0.75;;;0.20;;
48042;SDS011;33988;47.992;8.820;2023-01-05T07:05:37;0.70;;;0.55;;
48042;SDS011;33988;47.992;8.820;2023-01-05T07:08:07;0.52;;;0.47;;
48042;SDS011;33988;47.992;8.820;2023-01-05T07:10:34;0.75;;;0.50;;
48042;SDS011;33988;47.992;8.820;2023-01-05T07:13:01;0.30;;;0.30;;
48042;SDS011;33988;47.992;8.820;2023-01-05T07:15:30;0.40;;;0.40;;
48042;SDS011;33988;47.992;8.820;2023-01-05T07:17:57;0.50;;;0.50;;
48042;SDS011;33988;47.992;8.820;2023-01-05T07:20:24;0.38;;;0.38;;
48042;SDS011;33988;47.992;8.820;2023-01-05T07:22:53;1.60;;;0.77;;
48042;SDS011;33988;47.992;8.820;2023-01-05T07:25:22;0.70;;;0.70;;
48042;SDS011;33988;47.992;8.820;2023-01-05T07:27:56;0.45;;;0.45;;
48042;SDS011;33988;47.992;8.820;2023-01-05T07:30:25;0.40;;;0.40;;
48042;SDS011;33988;47.992;8.820;2023-01-05T07:32:56;0.40;;;0.40;;
48042;SDS011;33988;47.992;8.820;2023-01-05T07:35:26;0.50;;;0.50;;
48042;SDS011;33988;47.992;8.820;2023-01-05T07:37:56;0.30;;;0.30;;
48042;SDS011;33988;47.992;8.820;2023-01-05T07:40:25;0.52;;;0.32;;
48042;SDS011;33988;47.992;8.820;2023-01-05T07:42:55;0.22;;;0.22;;
48042;SDS011;33988;47.992;8.820;2023-01-05T07:45:24;0.20;;;0.20;;
48042;SDS011;33988;47.992;8.820;2023-01-05T07:47:51;0.30;;;0.30;;
48042;SDS011;33988;47.992;8.820;2023-01-05T07:50:18;0.20;;;0.20;;
48042;SDS011;33988;47.992;8.820;2023-01-05T07:52:47;0.82;;;0.28;;
48042;SDS011;33988;47.992;8.820;2023-01-05T07:55:14;1.58;;;0.35;;
48042;SDS011;33988;47.992;8.820;2023-01-05T07:57:42;0.20;;;0.20;;
48042;SDS011;33988;47.992;8.820;2023-01-05T08:00:09;0.30;;;0.30;;
48042;SDS011;33988;47.992;8.820;2023-01-05T08:02:40;0.80;;;0.35;;
48042;SDS011;33988;47.992;8.820;2023-01-05T08:05:08;0.73;;;0.70;;
48042;SDS011;33988;47.992;8.820;2023-01-05T08:07:38;1.75;;;1.40;;
48042;SDS011;33988;47.992;8.820;2023-01-05T08:10:08;2.22;;;1.40;;
48042;SDS011;33988;47.992;8.820;2023-01-05T08:12:53;2.30;;;1.60;;
48042;SDS011;33988;47.992;8.820;2023-01-05T08:15:39;1.27;;;1.08;;
48042;SDS011;33988;47.992;8.820;2023-01-05T08:18:14;0.82;;;0.60;;
48042;SDS011;33988;47.992;8.820;2023-01-05T08:20:41;0.70;;;0.70;;
48042;SDS011;33988;47.992;8.820;2023-01-05T08:23:08;0.63;;;0.50;;
48042;SDS011;33988;47.992;8.820;2023-01-05T08:25:34;0.43;;;0.40;;
48042;SDS011;33988;47.992;8.820;2023-01-05T08:28:01;0.43;;;0.43;;
48042;SDS011;33988;47.992;8.820;2023-01-05T08:30:29;0.30;;;0.30;;
48042;SDS011;33988;47.992;8.820;2023-01-05T08:32:56;1.67;;;0.80;;
48042;SDS011;33988;47.992;8.820;2023-01-05T08:35:23;1.60;;;1.00;;
48042;SDS011;33988;47.992;8.820;2023-01-05T08:37:50;1.23;;;0.93;;
48042;SDS011;33988;47.992;8.820;2023-01-05T08:40:17;1.20;;;0.82;;
48042;SDS011;33988;47.992;8.820;2023-01-05T08:42:44;1.02;;;0.80;;
48042;SDS011;33988;47.992;8.820;2023-01-05T08:45:16;1.17;;;0.70;;
48042;SDS011;33988;47.992;8.820;2023-01-05T08:47:46;0.73;;;0.73;;
48042;SDS011;33988;47.992;8.820;2023-01-05T08:50:15;1.70;;;0.60;;
48042;SDS011;33988;47.992;8.820;2023-01-05T08:52:42;0.75;;;0.60;;
48042;SDS011;33988;47.992;8.820;2023-01-05T08:55:14;2.55;;;0.57;;
48042;SDS011;33988;47.992;8.820;2023-01-05T08:57:41;0.60;;;0.60;;
48042;SDS011;33988;47.992;8.820;2023-01-05T09:00:08;0.88;;;0.75;;
48042;SDS011;33988;47.992;8.820;2023-01-05T09:02:36;0.60;;;0.60;;
48042;SDS011;33988;47.992;8.820;2023-01-05T09:05:03;0.50;;;0.50;;
48042;SDS011;33988;47.992;8.820;2023-01-05T09:07:31;1.02;;;0.75;;
48042;SDS011;33988;47.992;8.820;2023-01-05T09:09:58;0.70;;;0.55;;
48042;SDS011;33988;47.992;8.820;2023-01-05T09:12:25;0.55;;;0.50;;
48042;SDS011;33988;47.992;8.820;2023-01-05T09:14:58;0.50;;;0.50;;
48042;SDS011;33988;47.992;8.820;2023-01-05T09:17:31;0.35;;;0.35;;
48042;SDS011;33988;47.992;8.820;2023-01-05T09:19:58;1.05;;;0.80;;
48042;SDS011;33988;47.992;8.820;2023-01-05T09:22:32;0.93;;;0.73;;
48042;SDS011;33988;47.992;8.820;2023-01-05T09:25:01;0.85;;;0.73;;
48042;SDS011;33988;47.992;8.820;2023-01-05T09:27:29;0.82;;;0.63;;
48042;SDS011;33988;47.992;8.820;2023-01-05T09:29:56;1.85;;;0.95;;
48042;SDS011;33988;47.992;8.820;2023-01-05T09:32:23;1.35;;;1.08;;
48042;SDS011;33988;47.992;8.820;2023-01-05T09:34:50;1.10;;;1.00;;
48042;SDS011;33988;47.992;8.820;2023-01-05T09:37:22;1.20;;;1.10;;
48042;SDS011;33988;47.992;8.820;2023-01-05T09:39:49;1.33;;;1.15;;
48042;SDS011;33988;47.992;8.820;2023-01-05T09:42:19;1.80;;;1.40;;
48042;SDS011;33988;47.992;8.820;2023-01-05T09:44:50;1.65;;;1.05;;
48042;SDS011;33988;47.992;8.820;2023-01-05T09:50:04;0.80;;;0.80;;
48042;SDS011;33988;47.992;8.820;2023-01-05T09:55:21;4.05;;;1.15;;
48042;SDS011;33988;47.992;8.820;2023-01-05T09:57:52;2.30;;;1.70;;
48042;SDS011;33988;47.992;8.820;2023-01-05T10:00:25;4.35;;;1.80;;
48042;SDS011;33988;47.992;8.820;2023-01-05T10:03:13;4.35;;;2.97;;
48042;SDS011;33988;47.992;8.820;2023-01-05T10:06:05;1.83;;;1.67;;
48042;SDS011;33988;47.992;8.820;2023-01-05T10:08:44;2.08;;;1.60;;
48042;SDS011;33988;47.992;8.820;2023-01-05T10:11:20;2.17;;;1.40;;
48042;SDS011;33988;47.992;8.820;2023-01-05T10:17:25;1.90;;;1.52;;
48042;SDS011;33988;47.992;8.820;2023-01-05T10:31:54;1.55;;;1.00;;
48042;SDS011;33988;47.992;8.820;2023-01-05T10:38:06;2.33;;;0.80;;
48042;SDS011;33988;47.992;8.820;2023-01-05T10:46:53;0.52;;;0.50;;
48042;SDS011;33988;47.992;8.820;2023-01-05T10:49:23;2.70;;;0.90;;
48042;SDS011;33988;47.992;8.820;2023-01-05T10:51:56;2.63;;;0.60;;
48042;SDS011;33988;47.992;8.820;2023-01-05T11:05:27;3.78;;;0.60;;
48042;SDS011;33988;47.992;8.820;2023-01-05T11:08:04;1.42;;;0.55;;
48042;SDS011;33988;47.992;8.820;2023-01-05T11:10:55;1.52;;;0.52;;
48042;SDS011;33988;47.992;8.820;2023-01-05T11:13:32;2.08;;;0.50;;
48042;SDS011;33988;47.992;8.820;2023-01-05T11:27:00;1.17;;;0.65;;
48042;SDS011;33988;47.992;8.820;2023-01-05T11:29:30;2.58;;;0.77;;
48042;SDS011;33988;47.992;8.820;2023-01-05T11:32:03;0.98;;;0.70;;
48042;SDS011;33988;47.992;8.820;2023-01-05T11:34:36;2.08;;;0.95;;
48042;SDS011;33988;47.992;8.820;2023-01-05T11:37:23;1.83;;;0.80;;
48042;SDS011;33988;47.992;8.820;2023-01-05T11:39:54;1.15;;;0.70;;
48042;SDS011;33988;47.992;8.820;2023-01-05T11:44:58;2.15;;;0.85;;
48042;SDS011;33988;47.992;8.820;2023-01-05T11:47:49;2.58;;;1.05;;
48042;SDS011;33988;47.992;8.820;2023-01-05T11:50:23;2.45;;;0.98;;
48042;SDS011;33988;47.992;8.820;2023-01-05T11:52:54;2.80;;;0.88;;
48042;SDS011;33988;47.992;8.820;2023-01-05T12:03:48;1.35;;;0.68;;
48042;SDS011;33988;47.992;8.820;2023-01-05T12:09:27;2.08;;;0.75;;
48042;SDS011;33988;47.992;8.820;2023-01-05T12:20:53;1.40;;;0.53;;
48042;SDS011;33988;47.992;8.820;2023-01-05T12:38:56;2.17;;;0.90;;
48042;SDS011;33988;47.992;8.820;2023-01-05T12:42:22;1.52;;;0.68;;
48042;SDS011;33988;47.992;8.820;2023-01-05T12:48:24;1.27;;;0.50;;
48042;SDS011;33988;47.992;8.820;2023-01-05T12:51:17;0.55;;;0.52;;
48042;SDS011;33988;47.992;8.820;2023-01-05T12:57:21;1.02;;;0.75;;
48042;SDS011;33988;47.992;8.820;2023-01-05T13:00:04;2.25;;;0.80;;
48042;SDS011;33988;47.992;8.820;2023-01-05T13:02:41;0.57;;;0.55;;
48042;SDS011;33988;47.992;8.820;2023-01-05T13:05:23;1.17;;;0.50;;
48042;SDS011;33988;47.992;8.820;2023-01-05T13:14:16;3.58;;;1.30;;
48042;SDS011;33988;47.992;8.820;2023-01-05T13:17:39;3.45;;;1.50;;
48042;SDS011;33988;47.992;8.820;2023-01-05T13:19:58;2.00;;;0.80;;
48042;SDS011;33988;47.992;8.820;2023-01-05T13:23:02;1.65;;;1.00;;
48042;SDS011;33988;47.992;8.820;2023-01-05T13:25:52;2.55;;;1.20;;
48042;SDS011;33988;47.992;8.820;2023-01-05T13:28:32;3.35;;;0.90;;
48042;SDS011;33988;47.992;8.820;2023-01-05T13:31:05;1.30;;;0.90;;
48042;SDS011;33988;47.992;8.820;2023-01-05T13:39:53;2.08;;;0.85;;
48042;SDS011;33988;47.992;8.820;2023-01-05T13:53:57;0.88;;;0.82;;
48042;SDS011;33988;47.992;8.820;2023-01-05T13:56:33;2.08;;;0.88;;
48042;SDS011;33988;47.992;8.820;2023-01-05T13:59:05;1.07;;;0.70;;
48042;SDS011;33988;47.992;8.820;2023-01-05T14:01:59;0.90;;;0.68;;
48042;SDS011;33988;47.992;8.820;2023-01-05T14:04:29;0.70;;;0.70;;
48042;SDS011;33988;47.992;8.820;2023-01-05T14:07:03;1.02;;;0.80;;
48042;SDS011;33988;47.992;8.820;2023-01-05T14:09:41;0.95;;;0.73;;
48042;SDS011;33988;47.992;8.820;2023-01-05T14:17:57;2.65;;;0.68;;
48042;SDS011;33988;47.992;8.820;2023-01-05T14:39:51;2.33;;;0.70;;
48042;SDS011;33988;47.992;8.820;2023-01-05T14:42:16;1.17;;;0.65;;
48042;SDS011;33988;47.992;8.820;2023-01-05T14:47:41;0.73;;;0.73;;
48042;SDS011;33988;47.992;8.820;2023-01-05T14:53:11;1.17;;;0.88;;
48042;SDS011;33988;47.992;8.820;2023-01-05T15:01:15;1.38;;;1.00;;
48042;SDS011;33988;47.992;8.820;2023-01-05T15:09:51;1.17;;;0.70;;
48042;SDS011;33988;47.992;8.820;2023-01-05T15:12:33;0.85;;;0.80;;
48042;SDS011;33988;47.992;8.820;2023-01-05T15:35:48;2.67;;;1.10;;
48042;SDS011;33988;47.992;8.820;2023-01-05T15:40:54;2.57;;;1.87;;
48042;SDS011;33988;47.992;8.820;2023-01-05T15:43:25;2.13;;;1.92;;
48042;SDS011;33988;47.992;8.820;2023-01-05T15:45:52;2.53;;;1.88;;
48042;SDS011;33988;47.992;8.820;2023-01-05T15:48:25;4.05;;;1.92;;
48042;SDS011;33988;47.992;8.820;2023-01-05T15:50:58;2.55;;;1.98;;
48042;SDS011;33988;47.992;8.820;2023-01-05T15:53:31;1.83;;;1.50;;
48042;SDS011;33988;47.992;8.820;2023-01-05T15:56:04;1.90;;;1.42;;
48042;SDS011;33988;47.992;8.820;2023-01-05T15:58:49;5.93;;;3.95;;
48042;SDS011;33988;47.992;8.820;2023-01-05T16:01:17;7.53;;;4.63;;
48042;SDS011;33988;47.992;8.820;2023-01-05T16:03:46;3.60;;;2.58;;
48042;SDS011;33988;47.992;8.820;2023-01-05T16:08:53;2.42;;;1.80;;
48042;SDS011;33988;47.992;8.820;2023-01-05T16:11:34;4.47;;;2.88;;
48042;SDS011;33988;47.992;8.820;2023-01-05T16:14:12;3.67;;;2.88;;
48042;SDS011;33988;47.992;8.820;2023-01-05T16:16:51;4.82;;;3.42;;
48042;SDS011;33988;47.992;8.820;2023-01-05T16:22:15;4.05;;;2.25;;
48042;SDS011;33988;47.992;8.820;2023-01-05T16:27:52;5.40;;;1.92;;
48042;SDS011;33988;47.992;8.820;2023-01-05T16:33:05;2.92;;;2.17;;
48042;SDS011;33988;47.992;8.820;2023-01-05T16:35:45;3.40;;;2.10;;
48042;SDS011;33988;47.992;8.820;2023-01-05T16:40:58;3.55;;;2.85;;
48042;SDS011;33988;47.992;8.820;2023-01-05T16:49:24;2.90;;;2.60;;
48042;SDS011;33988;47.992;8.820;2023-01-05T16:52:18;2.80;;;2.50;;
48042;SDS011;33988;47.992;8.820;2023-01-05T16:55:22;4.03;;;2.80;;
48042;SDS011;33988;47.992;8.820;2023-01-05T16:58:05;2.65;;;2.10;;
48042;SDS011;33988;47.992;8.820;2023-01-05T17:03:38;2.88;;;2.42;;
48042;SDS011;33988;47.992;8.820;2023-01-05T17:06:27;2.45;;;2.25;;
48042;SDS011;33988;47.992;8.820;2023-01-05T17:08:59;2.60;;;1.95;;
48042;SDS011;33988;47.992;8.820;2023-01-05T17:11:35;3.72;;;2.17;;
48042;SDS011;33988;47.992;8.820;2023-01-05T17:14:10;2.40;;;2.03;;
48042;SDS011;33988;47.992;8.820;2023-01-05T17:16:42;2.15;;;1.83;;
48042;SDS011;33988;47.992;8.820;2023-01-05T17:19:13;2.78;;;2.00;;
48042;SDS011;33988;47.992;8.820;2023-01-05T17:21:43;2.28;;;2.08;;
48042;SDS011;33988;47.992;8.820;2023-01-05T17:24:19;3.78;;;2.28;;
48042;SDS011;33988;47.992;8.820;2023-01-05T17:26:47;3.75;;;2.08;;
48042;SDS011;33988;47.992;8.820;2023-01-05T17:29:19;2.42;;;2.13;;
48042;SDS011;33988;47.992;8.820;2023-01-05T17:31:49;3.17;;;2.45;;
48042;SDS011;33988;47.992;8.820;2023-01-05T17:34:17;2.38;;;2.17;;
48042;SDS011;33988;47.992;8.820;2023-01-05T17:36:45;2.10;;;1.85;;
48042;SDS011;33988;47.992;8.820;2023-01-05T17:39:19;2.53;;;1.67;;
48042;SDS011;33988;47.992;8.820;2023-01-05T17:41:47;1.70;;;1.58;;
48042;SDS011;33988;47.992;8.820;2023-01-05T17:44:17;2.75;;;2.20;;
48042;SDS011;33988;47.992;8.820;2023-01-05T17:46:45;4.05;;;3.30;;
48042;SDS011;33988;47.992;8.820;2023-01-05T17:49:14;4.80;;;2.70;;
48042;SDS011;33988;47.992;8.820;2023-01-05T17:51:44;4.05;;;2.85;;
48042;SDS011;33988;47.992;8.820;2023-01-05T17:54:14;4.38;;;3.05;;
48042;SDS011;33988;47.992;8.820;2023-01-05T17:56:43;2.88;;;2.20;;
48042;SDS011;33988;47.992;8.820;2023-01-05T17:59:14;2.55;;;1.85;;
48042;SDS011;33988;47.992;8.820;2023-01-05T18:01:44;2.88;;;2.15;;
48042;SDS011;33988;47.992;8.820;2023-01-05T18:04:11;2.97;;;2.08;;
48042;SDS011;33988;47.992;8.820;2023-01-05T18:06:38;1.95;;;1.77;;
48042;SDS011;33988;47.992;8.820;2023-01-05T18:09:05;2.95;;;2.28;;
48042;SDS011;33988;47.992;8.820;2023-01-05T18:11:32;3.17;;;1.45;;
48042;SDS011;33988;47.992;8.820;2023-01-05T18:14:00;3.20;;;1.80;;
48042;SDS011;33988;47.992;8.820;2023-01-05T18:16:27;2.78;;;2.08;;
48042;SDS011;33988;47.992;8.820;2023-01-05T18:18:59;2.65;;;2.15;;
48042;SDS011;33988;47.992;8.820;2023-01-05T18:21:33;4.45;;;3.22;;
48042;SDS011;33988;47.992;8.820;2023-01-05T18:24:02;4.75;;;3.70;;
48042;SDS011;33988;47.992;8.820;2023-01-05T18:26:31;4.93;;;3.95;;
48042;SDS011;33988;47.992;8.820;2023-01-05T18:29:00;5.40;;;3.78;;
48042;SDS011;33988;47.992;8.820;2023-01-05T18:31:27;6.90;;;4.35;;
48042;SDS011;33988;47.992;8.820;2023-01-05T18:33:54;5.30;;;4.03;;
48042;SDS011;33988;47.992;8.820;2023-01-05T18:36:21;5.68;;;3.92;;
48042;SDS011;33988;47.992;8.820;2023-01-05T18:38:53;6.35;;;4.13;;
48042;SDS011;33988;47.992;8.820;2023-01-05T18:41:23;4.43;;;3.75;;
48042;SDS011;33988;47.992;8.820;2023-01-05T18:43:50;5.38;;;3.72;;
48042;SDS011;33988;47.992;8.820;2023-01-05T18:46:17;2.88;;;2.58;;
48042;SDS011;33988;47.992;8.820;2023-01-05T18:48:53;5.05;;;2.25;;
48042;SDS011;33988;47.992;8.820;2023-01-05T18:51:23;3.25;;;2.33;;
48042;SDS011;33988;47.992;8.820;2023-01-05T18:53:53;8.02;;;3.42;;
48042;SDS011;33988;47.992;8.820;2023-01-05T18:56:22;5.30;;;3.15;;
48042;SDS011;33988;47.992;8.820;2023-01-05T18:58:51;4.72;;;3.40;;
48042;SDS011;33988;47.992;8.820;2023-01-05T19:01:21;6.97;;;3.83;;
48042;SDS011;33988;47.992;8.820;2023-01-05T19:03:51;5.15;;;3.85;;
48042;SDS011;33988;47.992;8.820;2023-01-05T19:06:22;3.55;;;2.90;;
48042;SDS011;33988;47.992;8.820;2023-01-05T19:08:53;3.22;;;2.50;;
48042;SDS011;33988;47.992;8.820;2023-01-05T19:11:25;4.65;;;3.10;;
48042;SDS011;33988;47.992;8.820;2023-01-05T19:13:53;3.45;;;2.70;;